createdAt,value
2019-05-01T00:01:30.243Z,8.80
2019-05-01T00:04:39.202Z,8.70
2019-05-01T00:07:21.881Z,8.60
2019-05-01T00:09:59.139Z,8.60
2019-05-01T00:12:34.520Z,8.50
2019-05-01T00:15:10.331Z,8.50
2019-05-01T00:17:45.789Z,8.50
2019-05-01T00:20:21.139Z,8.50
2019-05-01T00:22:56.473Z,8.40
2019-05-01T00:25:31.893Z,8.40
2019-05-01T00:28:07.628Z,8.40
2019-05-01T00:30:43.090Z,8.30
2019-05-01T00:33:18.593Z,8.40
2019-05-01T00:35:54.051Z,8.40
2019-05-01T00:38:29.357Z,8.40
2019-05-01T00:41:05.002Z,8.40
2019-05-01T00:43:40.343Z,8.30
2019-05-01T00:46:15.704Z,8.40
2019-05-01T00:48:51.162Z,8.40
2019-05-01T00:51:26.646Z,8.30
2019-05-01T00:54:02.060Z,8.40
2019-05-01T00:56:56.462Z,8.30
2019-05-01T00:59:44.724Z,8.30
2019-05-01T01:02:41.252Z,8.30
2019-05-01T01:05:20.616Z,8.20
2019-05-01T01:07:56.074Z,8.20
2019-05-01T01:10:38.483Z,8.20
2019-05-01T01:13:13.868Z,8.20
2019-05-01T01:15:49.160Z,8.10
2019-05-01T01:18:25.568Z,8.10
2019-05-01T01:21:00.932Z,8.10
2019-05-01T01:23:36.602Z,8.10
2019-05-01T01:26:11.985Z,8.00
2019-05-01T01:28:47.589Z,7.90
2019-05-01T01:31:22.988Z,8.00
2019-05-01T01:33:58.419Z,7.90
2019-05-01T01:36:33.755Z,8.00
2019-05-01T01:39:09.303Z,7.90
2019-05-01T01:41:45.773Z,7.90
2019-05-01T01:44:31.161Z,7.80
2019-05-01T01:47:06.553Z,7.80
2019-05-01T01:49:43.603Z,7.80
2019-05-01T01:52:19.140Z,7.80
2019-05-01T01:54:55.359Z,7.90
2019-05-01T01:57:31.340Z,7.80
2019-05-01T02:00:08.616Z,7.70
2019-05-01T02:02:51.036Z,7.70
2019-05-01T02:05:29.746Z,7.70
2019-05-01T02:08:05.419Z,7.70
2019-05-01T02:10:43.006Z,7.70
2019-05-01T02:13:17.941Z,7.70
2019-05-01T02:15:53.599Z,7.70
2019-05-01T02:18:29.038Z,7.70
2019-05-01T02:21:04.404Z,7.60
2019-05-01T02:23:39.786Z,7.50
2019-05-01T02:26:16.882Z,7.50
2019-05-01T02:29:20.256Z,7.50
2019-05-01T02:31:57.546Z,7.50
2019-05-01T02:34:33.013Z,7.50
2019-05-01T02:37:11.118Z,7.50
2019-05-01T02:39:48.543Z,7.50
2019-05-01T02:42:28.284Z,7.50
2019-05-01T02:45:05.645Z,7.40
2019-05-01T02:47:44.071Z,7.50
2019-05-01T02:50:21.512Z,7.40
2019-05-01T02:52:57.049Z,7.30
2019-05-01T02:55:38.797Z,7.30
2019-05-01T02:58:14.737Z,7.20
2019-05-01T03:00:50.149Z,7.20
2019-05-01T03:03:25.746Z,7.20
2019-05-01T03:06:02.261Z,7.00
2019-05-01T03:08:39.128Z,7.10
2019-05-01T03:11:14.437Z,7.10
2019-05-01T03:13:52.373Z,7.10
2019-05-01T03:16:27.887Z,7.00
2019-05-01T03:19:06.803Z,7.10
2019-05-01T03:21:47.723Z,7.10
2019-05-01T03:24:25.296Z,7.10
2019-05-01T03:27:00.854Z,7.00
2019-05-01T03:29:36.541Z,6.90
2019-05-01T03:32:18.231Z,6.90
2019-05-01T03:34:53.308Z,7.00
2019-05-01T03:37:31.765Z,7.00
2019-05-01T03:40:07.505Z,7.00
2019-05-01T03:42:43.122Z,6.80
2019-05-01T03:45:18.819Z,6.80
2019-05-01T03:47:54.788Z,6.80
2019-05-01T03:50:30.210Z,6.80
2019-05-01T03:53:05.703Z,6.90
2019-05-01T03:55:41.473Z,6.80
2019-05-01T03:58:17.314Z,6.80
2019-05-01T04:01:24.023Z,6.70
2019-05-01T04:04:06.058Z,6.80
2019-05-01T04:06:41.689Z,6.80
2019-05-01T04:09:17.178Z,6.80
2019-05-01T04:11:52.541Z,6.70
2019-05-01T04:14:27.959Z,6.70
2019-05-01T04:17:18.800Z,6.70
2019-05-01T04:19:55.171Z,6.60
2019-05-01T04:22:30.737Z,6.70
2019-05-01T04:25:06.642Z,6.70
2019-05-01T04:27:43.999Z,6.60
2019-05-01T04:30:31.928Z,6.50
2019-05-01T04:33:12.730Z,6.50
2019-05-01T04:35:53.481Z,6.60
2019-05-01T04:38:28.933Z,6.50
2019-05-01T04:41:04.404Z,6.60
2019-05-01T04:43:40.594Z,6.60
2019-05-01T04:46:16.377Z,6.60
2019-05-01T04:48:51.879Z,6.60
2019-05-01T04:51:27.697Z,6.60
2019-05-01T04:54:03.446Z,6.60
2019-05-01T04:56:38.761Z,6.60
2019-05-01T04:59:14.570Z,6.70
2019-05-01T05:01:56.960Z,6.70
2019-05-01T05:04:32.223Z,6.60
2019-05-01T05:07:07.980Z,6.60
2019-05-01T05:09:44.688Z,6.60
2019-05-01T05:12:37.832Z,6.70
2019-05-01T05:15:38.074Z,6.80
2019-05-01T05:18:14.172Z,6.80
2019-05-01T05:20:50.190Z,6.80
2019-05-01T05:23:25.916Z,6.80
2019-05-01T05:26:01.526Z,6.80
2019-05-01T05:28:38.601Z,6.90
2019-05-01T05:31:14.660Z,7.00
2019-05-01T05:33:50.210Z,7.10
2019-05-01T05:36:28.226Z,7.10
2019-05-01T05:39:18.687Z,7.20
2019-05-01T05:41:55.966Z,7.20
2019-05-01T05:44:31.458Z,7.30
2019-05-01T05:47:07.141Z,7.30
2019-05-01T05:49:42.576Z,7.40
2019-05-01T05:52:40.077Z,7.50
2019-05-01T05:55:27.491Z,7.60
2019-05-01T05:58:21.617Z,7.60
2019-05-01T06:01:34.083Z,7.70
2019-05-01T06:04:28.702Z,7.80
2019-05-01T06:07:24.490Z,7.80
2019-05-01T06:10:23.150Z,7.90
2019-05-01T06:13:32.425Z,8.00
2019-05-01T06:16:17.437Z,8.00
2019-05-01T06:19:14.595Z,8.10
2019-05-01T06:22:26.337Z,8.20
2019-05-01T06:25:21.312Z,8.20
2019-05-01T06:27:50.896Z,8.30
2019-05-01T06:30:26.342Z,8.40
2019-05-01T06:33:04.207Z,8.50
2019-05-01T06:35:39.432Z,8.60
2019-05-01T06:38:17.477Z,8.70
2019-05-01T06:40:58.145Z,8.80
2019-05-01T06:44:13.222Z,8.90
2019-05-01T06:47:10.940Z,8.90
2019-05-01T06:50:01.267Z,9.00
2019-05-01T06:52:39.922Z,9.10
2019-05-01T06:55:15.484Z,9.20
2019-05-01T06:57:51.206Z,9.30
2019-05-01T07:00:26.670Z,9.30
2019-05-01T07:03:06.037Z,9.40
2019-05-01T07:05:40.036Z,9.50
2019-05-01T07:08:24.377Z,9.60
2019-05-01T07:10:52.883Z,9.70
2019-05-01T07:13:42.207Z,9.80
2019-05-01T07:16:17.664Z,9.90
2019-05-01T07:18:57.958Z,9.90
2019-05-01T07:21:32.814Z,10.00
2019-05-01T07:24:09.267Z,10.20
2019-05-01T07:26:47.991Z,10.40
2019-05-01T07:29:23.495Z,10.60
2019-05-01T07:32:01.707Z,10.70
2019-05-01T07:34:36.019Z,10.90
2019-05-01T07:37:11.771Z,11.00
2019-05-01T07:39:50.011Z,11.00
2019-05-01T07:42:31.639Z,11.10
2019-05-01T07:45:26.657Z,11.20
2019-05-01T07:48:05.641Z,11.20
2019-05-01T07:50:39.550Z,11.30
2019-05-01T07:53:14.996Z,11.30
2019-05-01T07:55:52.720Z,11.20
2019-05-01T07:58:27.874Z,11.40
2019-05-01T08:01:13.038Z,11.40
2019-05-01T08:03:48.339Z,11.40
2019-05-01T08:06:23.744Z,11.40
2019-05-01T08:09:11.256Z,11.30
2019-05-01T08:11:46.025Z,11.30
2019-05-01T08:14:24.368Z,11.30
2019-05-01T08:16:59.750Z,11.40
2019-05-01T08:19:50.048Z,11.40
2019-05-01T08:22:39.073Z,11.40
2019-05-01T08:25:14.774Z,11.50
2019-05-01T08:28:09.392Z,11.50
2019-05-01T08:31:06.556Z,11.60
2019-05-01T08:33:59.661Z,11.60
2019-05-01T08:36:35.042Z,11.70
2019-05-01T08:39:12.404Z,11.70
2019-05-01T08:41:47.703Z,11.80
2019-05-01T08:44:24.858Z,11.90
2019-05-01T08:47:25.639Z,12.00
2019-05-01T08:50:24.595Z,12.00
2019-05-01T08:52:56.021Z,12.10
2019-05-01T08:55:34.079Z,12.10
2019-05-01T08:58:13.992Z,12.10
2019-05-01T09:00:46.774Z,12.20
2019-05-01T09:03:22.191Z,12.30
2019-05-01T09:05:58.975Z,12.40
2019-05-01T09:08:34.439Z,12.40
2019-05-01T09:11:09.915Z,12.40
2019-05-01T09:13:45.349Z,12.30
2019-05-01T09:16:23.397Z,12.40
2019-05-01T09:18:58.001Z,12.40
2019-05-01T09:21:37.642Z,12.50
2019-05-01T09:24:11.462Z,12.60
2019-05-01T09:26:54.432Z,12.70
2019-05-01T09:29:38.490Z,12.70
2019-05-01T09:32:13.953Z,12.70
2019-05-01T09:34:49.391Z,12.80
2019-05-01T09:37:25.234Z,12.90
2019-05-01T09:40:04.223Z,12.90
2019-05-01T09:42:37.900Z,13.00
2019-05-01T09:45:16.942Z,13.10
2019-05-01T09:47:52.553Z,13.00
2019-05-01T09:50:30.516Z,13.10
2019-05-01T09:53:34.192Z,13.20
2019-05-01T09:56:13.598Z,13.40
2019-05-01T09:58:48.995Z,13.40
2019-05-01T10:01:31.730Z,13.40
2019-05-01T10:04:05.279Z,13.50
2019-05-01T10:06:39.487Z,13.50
2019-05-01T10:09:16.914Z,13.50
2019-05-01T10:11:52.107Z,13.60
2019-05-01T10:14:31.680Z,13.70
2019-05-01T10:17:05.020Z,13.80
2019-05-01T10:19:40.517Z,13.80
2019-05-01T10:22:16.295Z,13.90
2019-05-01T10:24:51.789Z,13.90
2019-05-01T10:27:30.979Z,13.80
2019-05-01T10:30:36.337Z,14.00
2019-05-01T10:33:16.078Z,14.10
2019-05-01T10:36:18.810Z,14.40
2019-05-01T10:38:52.797Z,14.50
2019-05-01T10:41:28.623Z,14.50
2019-05-01T10:44:05.184Z,14.50
2019-05-01T10:46:43.169Z,14.50
2019-05-01T10:49:18.549Z,14.40
2019-05-01T10:51:54.029Z,14.70
2019-05-01T10:54:29.440Z,14.90
2019-05-01T10:57:08.966Z,14.90
2019-05-01T10:59:44.399Z,14.80
2019-05-01T11:02:20.026Z,14.90
2019-05-01T11:04:55.523Z,14.90
2019-05-01T11:07:31.104Z,14.80
2019-05-01T11:10:08.113Z,14.90
2019-05-01T11:12:43.547Z,15.00
2019-05-01T11:15:19.473Z,15.00
2019-05-01T11:17:54.888Z,15.00
2019-05-01T11:20:30.322Z,15.10
2019-05-01T11:23:05.803Z,14.90
2019-05-01T11:25:41.480Z,14.80
2019-05-01T11:28:16.947Z,14.70
2019-05-01T11:30:52.338Z,14.80
2019-05-01T11:33:50.404Z,14.70
2019-05-01T11:36:48.215Z,14.70
2019-05-01T11:39:36.064Z,14.70
2019-05-01T11:42:13.858Z,14.70
2019-05-01T11:44:49.282Z,14.70
2019-05-01T11:47:25.814Z,14.80
2019-05-01T11:50:01.111Z,14.80
2019-05-01T11:52:36.599Z,15.00
2019-05-01T11:55:13.441Z,15.00
2019-05-01T11:57:48.988Z,15.10
2019-05-01T12:00:24.506Z,15.00
2019-05-01T12:02:59.938Z,15.00
2019-05-01T12:05:35.267Z,15.00
2019-05-01T12:08:10.667Z,14.90
2019-05-01T12:10:46.389Z,14.80
2019-05-01T12:13:21.915Z,14.80
2019-05-01T12:16:04.184Z,14.80
2019-05-01T12:18:39.536Z,14.80
2019-05-01T12:21:14.835Z,14.60
2019-05-01T12:23:50.501Z,14.70
2019-05-01T12:26:25.829Z,14.80
2019-05-01T12:29:01.393Z,14.90
2019-05-01T12:31:36.819Z,14.90
2019-05-01T12:34:12.295Z,15.00
2019-05-01T12:36:48.336Z,15.20
2019-05-01T12:39:23.862Z,15.20
2019-05-01T12:42:00.463Z,15.40
2019-05-01T12:44:35.884Z,15.70
2019-05-01T12:47:39.048Z,15.90
2019-05-01T12:50:15.594Z,15.80
2019-05-01T12:53:21.682Z,16.00
2019-05-01T12:56:15.955Z,15.80
2019-05-01T12:58:51.335Z,15.80
2019-05-01T13:01:26.814Z,16.10
2019-05-01T13:04:02.270Z,16.40
2019-05-01T13:06:48.881Z,16.60
2019-05-01T13:09:14.651Z,16.70
2019-05-01T13:11:50.202Z,16.70
2019-05-01T13:14:25.632Z,17.00
2019-05-01T13:17:01.030Z,17.20
2019-05-01T13:19:36.455Z,17.30
2019-05-01T13:22:11.927Z,17.30
2019-05-01T13:24:50.467Z,17.40
2019-05-01T13:27:33.555Z,17.50
2019-05-01T13:30:23.561Z,17.60
2019-05-01T13:33:00.603Z,17.70
2019-05-01T13:35:35.989Z,17.60
2019-05-01T13:38:11.583Z,17.60
2019-05-01T13:40:47.007Z,17.60
2019-05-01T13:43:22.666Z,17.80
2019-05-01T13:45:57.979Z,17.80
2019-05-01T13:48:33.431Z,17.90
2019-05-01T13:51:08.959Z,18.00
2019-05-01T13:53:44.358Z,18.00
2019-05-01T13:56:19.731Z,18.10
2019-05-01T13:58:55.170Z,18.20
2019-05-01T14:01:33.076Z,18.20
2019-05-01T14:04:08.682Z,18.20
2019-05-01T14:06:44.229Z,18.10
2019-05-01T14:09:29.668Z,18.10
2019-05-01T14:12:05.165Z,18.20
2019-05-01T14:14:40.660Z,18.30
2019-05-01T14:17:16.140Z,18.30
2019-05-01T14:20:01.938Z,18.20
2019-05-01T14:23:05.398Z,18.20
2019-05-01T14:25:58.547Z,18.00
2019-05-01T14:28:34.288Z,18.00
2019-05-01T14:31:09.724Z,18.00
2019-05-01T14:33:45.124Z,18.00
2019-05-01T14:36:27.893Z,18.00
2019-05-01T14:39:04.745Z,18.00
2019-05-01T14:41:41.915Z,18.00
2019-05-01T14:44:19.214Z,18.00
2019-05-01T14:46:55.333Z,18.00
2019-05-01T14:49:33.712Z,18.10
2019-05-01T14:52:14.116Z,18.00
2019-05-01T14:54:49.524Z,18.10
2019-05-01T14:57:24.878Z,18.30
2019-05-01T15:00:00.229Z,18.30
2019-05-01T15:02:37.247Z,18.40
2019-05-01T15:05:12.607Z,18.40
2019-05-01T15:07:48.013Z,18.50
2019-05-01T15:10:25.447Z,18.30
2019-05-01T15:13:03.235Z,18.30
2019-05-01T15:15:46.159Z,18.20
2019-05-01T15:18:29.583Z,18.10
2019-05-01T15:21:05.076Z,18.10
2019-05-01T15:23:52.581Z,18.20
2019-05-01T15:26:17.522Z,18.10
2019-05-01T15:28:53.340Z,18.10
2019-05-01T15:31:28.716Z,18.10
2019-05-01T15:34:04.290Z,18.00
2019-05-01T15:36:39.616Z,18.00
2019-05-01T15:39:49.646Z,18.00
2019-05-01T15:42:41.894Z,17.90
2019-05-01T15:45:17.408Z,17.60
2019-05-01T15:47:52.773Z,17.50
2019-05-01T15:50:31.258Z,17.40
2019-05-01T15:53:06.610Z,17.30
2019-05-01T15:55:42.009Z,17.20
2019-05-01T15:58:17.422Z,17.20
2019-05-01T16:00:52.925Z,17.10
2019-05-01T16:03:28.361Z,17.10
2019-05-01T16:06:03.762Z,16.90
2019-05-01T16:08:41.104Z,16.90
2019-05-01T16:11:43.988Z,16.90
2019-05-01T16:14:19.404Z,16.70
2019-05-01T16:16:54.957Z,16.80
2019-05-01T16:19:34.311Z,16.80
2019-05-01T16:22:09.733Z,16.80
2019-05-01T16:24:45.014Z,16.80
2019-05-01T16:27:20.514Z,16.70
2019-05-01T16:30:02.351Z,16.70
2019-05-01T16:32:37.961Z,16.70
2019-05-01T16:35:14.551Z,16.70
2019-05-01T16:37:53.765Z,16.60
2019-05-01T16:40:51.097Z,16.60
2019-05-01T16:43:26.397Z,16.50
2019-05-01T16:46:07.013Z,16.40
2019-05-01T16:48:42.419Z,16.40
2019-05-01T16:51:17.741Z,16.30
2019-05-01T16:53:53.003Z,16.30
2019-05-01T16:56:28.440Z,16.20
2019-05-01T16:59:03.762Z,16.20
2019-05-01T17:02:07.366Z,16.20
2019-05-01T17:04:48.669Z,16.00
2019-05-01T17:07:29.780Z,16.00
2019-05-01T17:10:22.614Z,15.80
2019-05-01T17:12:58.180Z,15.80
2019-05-01T17:15:40.809Z,15.80
2019-05-01T17:18:16.286Z,15.70
2019-05-01T17:20:51.781Z,15.70
2019-05-01T17:23:27.252Z,15.70
2019-05-01T17:26:02.929Z,15.70
2019-05-01T17:28:38.514Z,15.70
2019-05-01T17:31:14.124Z,15.60
2019-05-01T17:33:50.920Z,15.60
2019-05-01T17:36:26.727Z,15.60
2019-05-01T17:39:02.231Z,15.50
2019-05-01T17:41:39.135Z,15.50
2019-05-01T17:44:14.465Z,15.40
2019-05-01T17:46:53.147Z,15.30
2019-05-01T17:49:28.553Z,15.20
2019-05-01T17:52:04.189Z,15.30
2019-05-01T17:54:39.566Z,15.20
2019-05-01T17:57:15.087Z,15.10
2019-05-01T17:59:52.419Z,15.20
2019-05-01T18:02:34.776Z,15.10
2019-05-01T18:05:32.285Z,15.00
2019-05-01T18:08:07.729Z,15.00
2019-05-01T18:10:43.091Z,14.90
2019-05-01T18:13:18.645Z,14.90
2019-05-01T18:15:54.107Z,14.80
2019-05-01T18:18:29.586Z,14.70
2019-05-01T18:21:05.024Z,14.70
2019-05-01T18:24:00.057Z,14.70
2019-05-01T18:27:03.550Z,14.60
2019-05-01T18:29:47.010Z,14.50
2019-05-01T18:32:51.977Z,14.40
2019-05-01T18:35:24.456Z,14.40
2019-05-01T18:38:06.273Z,14.20
2019-05-01T18:40:45.373Z,14.20
2019-05-01T18:43:20.889Z,14.20
2019-05-01T18:45:57.964Z,14.10
2019-05-01T18:48:44.609Z,14.00
2019-05-01T18:51:21.455Z,13.90
2019-05-01T18:53:57.776Z,13.90
2019-05-01T18:56:38.147Z,13.80
2019-05-01T18:59:12.386Z,13.70
2019-05-01T19:01:49.721Z,13.70
2019-05-01T19:04:28.020Z,13.60
2019-05-01T19:07:04.459Z,13.50
2019-05-01T19:09:39.991Z,13.40
2019-05-01T19:12:16.094Z,13.30
2019-05-01T19:14:51.578Z,13.30
2019-05-01T19:17:27.094Z,13.30
2019-05-01T19:20:02.479Z,13.20
2019-05-01T19:22:37.932Z,13.10
2019-05-01T19:25:16.051Z,13.10
2019-05-01T19:27:51.572Z,13.00
2019-05-01T19:30:27.006Z,13.00
2019-05-01T19:33:02.707Z,13.00
2019-05-01T19:35:38.091Z,12.90
2019-05-01T19:38:14.427Z,12.90
2019-05-01T19:40:49.813Z,12.80
2019-05-01T19:43:25.339Z,12.70
2019-05-01T19:46:00.871Z,12.60
2019-05-01T19:48:36.496Z,12.60
2019-05-01T19:51:12.093Z,12.60
2019-05-01T19:53:51.752Z,12.50
2019-05-01T19:56:24.572Z,12.40
2019-05-01T19:59:00.208Z,12.40
2019-05-01T20:01:38.413Z,12.40
2019-05-01T20:04:15.134Z,12.30
2019-05-01T20:06:50.986Z,12.30
2019-05-01T20:09:26.786Z,12.40
2019-05-01T20:12:02.360Z,12.30
2019-05-01T20:14:37.882Z,12.20
2019-05-01T20:17:13.497Z,12.10
2019-05-01T20:19:48.989Z,12.10
2019-05-01T20:22:24.403Z,12.00
2019-05-01T20:24:59.910Z,11.90
2019-05-01T20:27:36.952Z,11.90
2019-05-01T20:30:13.770Z,11.80
2019-05-01T20:32:49.298Z,11.80
2019-05-01T20:35:28.458Z,11.70
2019-05-01T20:38:01.882Z,11.70
2019-05-01T20:40:38.397Z,11.70
2019-05-01T20:43:13.985Z,11.60
2019-05-01T20:45:51.246Z,11.60
2019-05-01T20:48:26.659Z,11.60
2019-05-01T20:51:02.061Z,11.60
2019-05-01T20:53:37.487Z,11.50
2019-05-01T20:56:33.438Z,11.40
2019-05-01T20:59:08.879Z,11.40
2019-05-01T21:01:44.297Z,11.40
2019-05-01T21:04:37.323Z,11.30
2019-05-01T21:07:33.576Z,11.30
2019-05-01T21:10:09.248Z,11.30
2019-05-01T21:12:44.892Z,11.20
2019-05-01T21:15:24.856Z,11.10
2019-05-01T21:17:57.384Z,11.00
2019-05-01T21:20:33.888Z,11.00
2019-05-01T21:23:11.656Z,11.00
2019-05-01T21:25:47.082Z,11.00
2019-05-01T21:28:24.013Z,11.00
2019-05-01T21:30:59.452Z,11.00
2019-05-01T21:33:34.815Z,10.90
2019-05-01T21:36:10.214Z,10.90
2019-05-01T21:38:46.714Z,10.90
2019-05-01T21:41:22.505Z,10.80
2019-05-01T21:43:57.951Z,10.80
2019-05-01T21:46:34.017Z,10.80
2019-05-01T21:49:09.663Z,10.70
2019-05-01T21:51:46.298Z,10.70
2019-05-01T21:54:22.033Z,10.60
2019-05-01T21:56:59.008Z,10.60
2019-05-01T21:59:35.317Z,10.50
2019-05-01T22:02:12.012Z,10.50
2019-05-01T22:04:47.475Z,10.40
2019-05-01T22:07:23.843Z,10.20
2019-05-01T22:10:00.026Z,10.30
2019-05-01T22:12:35.468Z,10.30
2019-05-01T22:15:19.242Z,10.20
2019-05-01T22:18:02.227Z,10.20
2019-05-01T22:20:42.763Z,10.10
2019-05-01T22:23:21.918Z,10.00
2019-05-01T22:25:58.797Z,9.90
2019-05-01T22:28:54.812Z,10.00
2019-05-01T22:31:52.899Z,10.00
2019-05-01T22:34:39.754Z,10.00
2019-05-01T22:37:15.162Z,9.90
2019-05-01T22:39:58.669Z,9.80
2019-05-01T22:42:34.089Z,9.80
2019-05-01T22:45:16.397Z,9.80
2019-05-01T22:47:52.277Z,9.70
2019-05-01T22:50:27.750Z,9.60
2019-05-01T22:53:03.198Z,9.60
2019-05-01T22:55:38.602Z,9.50
2019-05-01T22:58:14.061Z,9.50
2019-05-01T23:00:52.533Z,9.30
2019-05-01T23:03:40.820Z,9.20
2019-05-01T23:06:13.710Z,9.00
2019-05-01T23:08:49.101Z,9.10
2019-05-01T23:11:26.138Z,9.10
2019-05-01T23:14:08.657Z,9.10
2019-05-01T23:16:51.152Z,9.00
2019-05-01T23:19:27.839Z,9.10
2019-05-01T23:22:03.868Z,9.00
2019-05-01T23:24:39.324Z,9.00
2019-05-01T23:27:15.801Z,9.00
2019-05-01T23:29:51.221Z,9.00
2019-05-01T23:32:26.873Z,8.90
2019-05-01T23:35:02.305Z,8.80
2019-05-01T23:37:37.685Z,8.80
2019-05-01T23:40:15.507Z,8.80
2019-05-01T23:42:53.704Z,8.70
2019-05-01T23:45:27.324Z,8.70
2019-05-01T23:48:02.693Z,8.60
2019-05-01T23:50:38.177Z,8.60
2019-05-01T23:53:13.889Z,8.70
2019-05-01T23:55:54.720Z,8.60
2019-05-01T23:58:27.533Z,8.40
